sensor_id;sensor_type;location;lat;lon;timestamp;P1;durP1;ratioP1;P2;durP2;ratioP2
61960;SDS011;47923;42.506;24.192;2023-04-06T00:01:44;11.73;;;7.28;;
61960;SDS011;47923;42.506;24.192;2023-04-06T00:04:10;12.00;;;8.07;;
61960;SDS011;47923;42.506;24.192;2023-04-06T00:06:36;10.43;;;6.63;;
61960;SDS011;47923;42.506;24.192;2023-04-06T00:09:01;11.05;;;6.72;;
61960;SDS011;47923;42.506;24.192;2023-04-06T00:11:27;13.85;;;8.63;;
61960;SDS011;47923;42.506;24.192;2023-04-06T00:13:52;10.98;;;7.50;;
61960;SDS011;47923;42.506;24.192;2023-04-06T00:16:18;10.48;;;6.30;;
61960;SDS011;47923;42.506;24.192;2023-04-06T00:18:43;10.77;;;6.25;;
61960;SDS011;47923;42.506;24.192;2023-04-06T00:21:13;12.27;;;7.38;;
61960;SDS011;47923;42.506;24.192;2023-04-06T00:23:39;12.00;;;7.40;;
61960;SDS011;47923;42.506;24.192;2023-04-06T00:26:05;13.43;;;7.40;;
61960;SDS011;47923;42.506;24.192;2023-04-06T00:28:31;11.45;;;6.68;;
61960;SDS011;47923;42.506;24.192;2023-04-06T00:30:56;12.32;;;7.13;;
61960;SDS011;47923;42.506;24.192;2023-04-06T00:33:22;13.55;;;7.63;;
61960;SDS011;47923;42.506;24.192;2023-04-06T00:35:48;12.73;;;7.95;;
61960;SDS011;47923;42.506;24.192;2023-04-06T00:38:14;13.10;;;7.10;;
61960;SDS011;47923;42.506;24.192;2023-04-06T00:40:41;18.27;;;9.82;;
61960;SDS011;47923;42.506;24.192;2023-04-06T00:43:09;16.02;;;10.15;;
61960;SDS011;47923;42.506;24.192;2023-04-06T00:45:40;10.65;;;6.72;;
61960;SDS011;47923;42.506;24.192;2023-04-06T00:48:08;12.57;;;7.05;;
61960;SDS011;47923;42.506;24.192;2023-04-06T00:50:34;10.68;;;6.30;;
61960;SDS011;47923;42.506;24.192;2023-04-06T00:53:00;13.75;;;7.25;;
61960;SDS011;47923;42.506;24.192;2023-04-06T00:55:26;12.65;;;7.00;;
61960;SDS011;47923;42.506;24.192;2023-04-06T00:57:53;13.48;;;7.65;;
61960;SDS011;47923;42.506;24.192;2023-04-06T01:00:18;14.15;;;8.35;;
61960;SDS011;47923;42.506;24.192;2023-04-06T01:02:46;11.70;;;7.45;;
61960;SDS011;47923;42.506;24.192;2023-04-06T01:05:13;10.75;;;6.97;;
61960;SDS011;47923;42.506;24.192;2023-04-06T01:07:38;13.20;;;7.88;;
61960;SDS011;47923;42.506;24.192;2023-04-06T01:10:04;11.88;;;6.80;;
61960;SDS011;47923;42.506;24.192;2023-04-06T01:12:30;12.95;;;6.90;;
61960;SDS011;47923;42.506;24.192;2023-04-06T01:14:56;14.60;;;7.43;;
61960;SDS011;47923;42.506;24.192;2023-04-06T01:17:21;13.73;;;7.68;;
61960;SDS011;47923;42.506;24.192;2023-04-06T01:19:47;12.30;;;7.40;;
61960;SDS011;47923;42.506;24.192;2023-04-06T01:22:17;12.20;;;7.85;;
61960;SDS011;47923;42.506;24.192;2023-04-06T01:24:44;12.57;;;8.27;;
61960;SDS011;47923;42.506;24.192;2023-04-06T01:27:10;14.13;;;8.32;;
61960;SDS011;47923;42.506;24.192;2023-04-06T01:29:36;12.10;;;7.30;;
61960;SDS011;47923;42.506;24.192;2023-04-06T01:32:02;12.13;;;7.88;;
61960;SDS011;47923;42.506;24.192;2023-04-06T01:34:28;12.02;;;7.07;;
61960;SDS011;47923;42.506;24.192;2023-04-06T01:36:53;14.10;;;7.78;;
61960;SDS011;47923;42.506;24.192;2023-04-06T01:39:19;13.48;;;6.93;;
61960;SDS011;47923;42.506;24.192;2023-04-06T01:41:45;13.13;;;7.90;;
61960;SDS011;47923;42.506;24.192;2023-04-06T01:44:12;11.60;;;7.68;;
61960;SDS011;47923;42.506;24.192;2023-04-06T01:46:38;13.18;;;7.88;;
61960;SDS011;47923;42.506;24.192;2023-04-06T01:49:03;12.65;;;7.43;;
61960;SDS011;47923;42.506;24.192;2023-04-06T01:51:29;14.35;;;7.28;;
61960;SDS011;47923;42.506;24.192;2023-04-06T01:53:55;12.85;;;7.57;;
61960;SDS011;47923;42.506;24.192;2023-04-06T01:56:20;13.45;;;7.75;;
61960;SDS011;47923;42.506;24.192;2023-04-06T01:58:46;10.95;;;6.90;;
61960;SDS011;47923;42.506;24.192;2023-04-06T02:01:11;11.18;;;6.75;;
61960;SDS011;47923;42.506;24.192;2023-04-06T02:03:37;13.93;;;7.88;;
61960;SDS011;47923;42.506;24.192;2023-04-06T02:06:02;13.13;;;7.28;;
61960;SDS011;47923;42.506;24.192;2023-04-06T02:08:31;13.30;;;7.65;;
61960;SDS011;47923;42.506;24.192;2023-04-06T02:10:56;12.63;;;7.30;;
61960;SDS011;47923;42.506;24.192;2023-04-06T02:13:24;10.98;;;6.93;;
61960;SDS011;47923;42.506;24.192;2023-04-06T02:15:50;13.05;;;7.93;;
61960;SDS011;47923;42.506;24.192;2023-04-06T02:18:16;12.55;;;7.70;;
61960;SDS011;47923;42.506;24.192;2023-04-06T02:20:43;15.02;;;9.18;;
61960;SDS011;47923;42.506;24.192;2023-04-06T02:23:09;13.93;;;7.90;;
61960;SDS011;47923;42.506;24.192;2023-04-06T02:25:35;14.85;;;8.02;;
61960;SDS011;47923;42.506;24.192;2023-04-06T02:28:00;14.23;;;8.65;;
61960;SDS011;47923;42.506;24.192;2023-04-06T02:30:28;15.35;;;9.35;;
61960;SDS011;47923;42.506;24.192;2023-04-06T02:32:54;14.75;;;9.38;;
61960;SDS011;47923;42.506;24.192;2023-04-06T02:35:20;11.30;;;7.22;;
61960;SDS011;47923;42.506;24.192;2023-04-06T02:37:46;14.02;;;7.53;;
61960;SDS011;47923;42.506;24.192;2023-04-06T02:40:11;11.45;;;6.95;;
61960;SDS011;47923;42.506;24.192;2023-04-06T02:42:37;13.13;;;7.70;;
61960;SDS011;47923;42.506;24.192;2023-04-06T02:45:02;12.55;;;7.45;;
61960;SDS011;47923;42.506;24.192;2023-04-06T02:47:28;14.30;;;7.97;;
61960;SDS011;47923;42.506;24.192;2023-04-06T02:49:54;14.13;;;9.07;;
61960;SDS011;47923;42.506;24.192;2023-04-06T02:52:19;13.95;;;8.48;;
61960;SDS011;47923;42.506;24.192;2023-04-06T02:54:45;16.45;;;9.10;;
61960;SDS011;47923;42.506;24.192;2023-04-06T02:57:10;15.25;;;10.00;;
61960;SDS011;47923;42.506;24.192;2023-04-06T02:59:36;16.58;;;10.15;;
61960;SDS011;47923;42.506;24.192;2023-04-06T03:02:01;16.10;;;9.93;;
61960;SDS011;47923;42.506;24.192;2023-04-06T03:04:27;15.95;;;9.75;;
61960;SDS011;47923;42.506;24.192;2023-04-06T03:06:53;16.08;;;9.60;;
61960;SDS011;47923;42.506;24.192;2023-04-06T03:09:20;15.07;;;10.38;;
61960;SDS011;47923;42.506;24.192;2023-04-06T03:11:45;17.08;;;9.95;;
61960;SDS011;47923;42.506;24.192;2023-04-06T03:14:11;17.15;;;9.98;;
61960;SDS011;47923;42.506;24.192;2023-04-06T03:16:36;16.17;;;10.32;;
61960;SDS011;47923;42.506;24.192;2023-04-06T03:19:04;16.27;;;10.05;;
61960;SDS011;47923;42.506;24.192;2023-04-06T03:21:29;19.15;;;11.45;;
61960;SDS011;47923;42.506;24.192;2023-04-06T03:23:55;15.40;;;9.73;;
61960;SDS011;47923;42.506;24.192;2023-04-06T03:26:21;18.40;;;10.35;;
61960;SDS011;47923;42.506;24.192;2023-04-06T03:28:47;17.52;;;11.93;;
61960;SDS011;47923;42.506;24.192;2023-04-06T03:31:12;17.67;;;11.32;;
61960;SDS011;47923;42.506;24.192;2023-04-06T03:33:38;18.17;;;11.25;;
61960;SDS011;47923;42.506;24.192;2023-04-06T03:36:04;18.33;;;11.75;;
61960;SDS011;47923;42.506;24.192;2023-04-06T03:38:30;20.95;;;12.30;;
61960;SDS011;47923;42.506;24.192;2023-04-06T03:40:55;19.25;;;12.23;;
61960;SDS011;47923;42.506;24.192;2023-04-06T03:43:20;18.60;;;12.38;;
61960;SDS011;47923;42.506;24.192;2023-04-06T03:45:46;17.60;;;11.00;;
61960;SDS011;47923;42.506;24.192;2023-04-06T03:48:11;19.98;;;12.88;;
61960;SDS011;47923;42.506;24.192;2023-04-06T03:50:37;25.70;;;13.75;;
61960;SDS011;47923;42.506;24.192;2023-04-06T03:53:02;18.58;;;11.32;;
61960;SDS011;47923;42.506;24.192;2023-04-06T03:55:28;18.17;;;11.63;;
61960;SDS011;47923;42.506;24.192;2023-04-06T03:57:53;17.00;;;10.85;;
61960;SDS011;47923;42.506;24.192;2023-04-06T04:00:19;18.63;;;12.50;;
61960;SDS011;47923;42.506;24.192;2023-04-06T04:02:45;19.92;;;11.73;;
61960;SDS011;47923;42.506;24.192;2023-04-06T04:05:10;24.33;;;12.98;;
61960;SDS011;47923;42.506;24.192;2023-04-06T04:07:36;23.00;;;14.02;;
61960;SDS011;47923;42.506;24.192;2023-04-06T04:10:04;20.80;;;12.95;;
61960;SDS011;47923;42.506;24.192;2023-04-06T04:12:30;22.25;;;12.35;;
61960;SDS011;47923;42.506;24.192;2023-04-06T04:14:55;19.40;;;11.15;;
61960;SDS011;47923;42.506;24.192;2023-04-06T04:17:21;20.40;;;12.15;;
61960;SDS011;47923;42.506;24.192;2023-04-06T04:19:47;18.92;;;11.90;;
61960;SDS011;47923;42.506;24.192;2023-04-06T04:22:12;20.50;;;12.10;;
61960;SDS011;47923;42.506;24.192;2023-04-06T04:24:38;26.30;;;13.18;;
61960;SDS011;47923;42.506;24.192;2023-04-06T04:27:03;20.77;;;12.98;;
61960;SDS011;47923;42.506;24.192;2023-04-06T04:29:30;22.70;;;12.50;;
61960;SDS011;47923;42.506;24.192;2023-04-06T04:31:55;26.20;;;14.38;;
61960;SDS011;47923;42.506;24.192;2023-04-06T04:34:21;17.33;;;10.38;;
61960;SDS011;47923;42.506;24.192;2023-04-06T04:36:50;19.35;;;12.07;;
61960;SDS011;47923;42.506;24.192;2023-04-06T04:39:16;18.70;;;12.20;;
61960;SDS011;47923;42.506;24.192;2023-04-06T04:41:41;20.52;;;12.77;;
61960;SDS011;47923;42.506;24.192;2023-04-06T04:44:07;25.92;;;16.15;;
61960;SDS011;47923;42.506;24.192;2023-04-06T04:46:32;21.70;;;11.88;;
61960;SDS011;47923;42.506;24.192;2023-04-06T04:48:58;20.10;;;12.90;;
61960;SDS011;47923;42.506;24.192;2023-04-06T04:51:23;21.80;;;13.10;;
61960;SDS011;47923;42.506;24.192;2023-04-06T04:53:49;21.35;;;13.68;;
61960;SDS011;47923;42.506;24.192;2023-04-06T04:56:15;20.33;;;12.18;;
61960;SDS011;47923;42.506;24.192;2023-04-06T04:58:43;20.52;;;11.57;;
61960;SDS011;47923;42.506;24.192;2023-04-06T05:01:08;18.65;;;9.80;;
61960;SDS011;47923;42.506;24.192;2023-04-06T05:03:36;20.50;;;11.70;;
61960;SDS011;47923;42.506;24.192;2023-04-06T05:06:03;18.73;;;12.02;;
61960;SDS011;47923;42.506;24.192;2023-04-06T05:08:30;21.70;;;11.27;;
61960;SDS011;47923;42.506;24.192;2023-04-06T05:10:55;20.88;;;12.90;;
61960;SDS011;47923;42.506;24.192;2023-04-06T05:13:21;18.13;;;10.50;;
61960;SDS011;47923;42.506;24.192;2023-04-06T05:15:46;21.83;;;12.52;;
61960;SDS011;47923;42.506;24.192;2023-04-06T05:18:12;19.35;;;11.90;;
61960;SDS011;47923;42.506;24.192;2023-04-06T05:20:38;20.05;;;10.82;;
61960;SDS011;47923;42.506;24.192;2023-04-06T05:23:04;17.85;;;11.05;;
61960;SDS011;47923;42.506;24.192;2023-04-06T05:25:30;19.25;;;12.02;;
61960;SDS011;47923;42.506;24.192;2023-04-06T05:27:56;19.75;;;11.93;;
61960;SDS011;47923;42.506;24.192;2023-04-06T05:30:21;24.27;;;11.70;;
61960;SDS011;47923;42.506;24.192;2023-04-06T05:32:47;21.98;;;11.63;;
61960;SDS011;47923;42.506;24.192;2023-04-06T05:35:12;15.13;;;9.65;;
61960;SDS011;47923;42.506;24.192;2023-04-06T05:37:38;22.65;;;11.82;;
61960;SDS011;47923;42.506;24.192;2023-04-06T05:40:04;18.00;;;9.18;;
61960;SDS011;47923;42.506;24.192;2023-04-06T05:42:37;14.40;;;8.95;;
61960;SDS011;47923;42.506;24.192;2023-04-06T05:45:04;15.50;;;8.48;;
61960;SDS011;47923;42.506;24.192;2023-04-06T05:47:32;11.80;;;7.93;;
61960;SDS011;47923;42.506;24.192;2023-04-06T05:49:58;12.57;;;8.23;;
61960;SDS011;47923;42.506;24.192;2023-04-06T05:52:23;11.73;;;8.23;;
61960;SDS011;47923;42.506;24.192;2023-04-06T05:54:49;14.57;;;9.23;;
61960;SDS011;47923;42.506;24.192;2023-04-06T05:57:15;13.48;;;9.75;;
61960;SDS011;47923;42.506;24.192;2023-04-06T05:59:41;12.80;;;8.27;;
61960;SDS011;47923;42.506;24.192;2023-04-06T06:02:07;17.73;;;10.77;;
61960;SDS011;47923;42.506;24.192;2023-04-06T06:04:33;14.40;;;10.07;;
61960;SDS011;47923;42.506;24.192;2023-04-06T06:06:59;13.50;;;9.43;;
61960;SDS011;47923;42.506;24.192;2023-04-06T06:09:25;11.93;;;8.63;;
61960;SDS011;47923;42.506;24.192;2023-04-06T06:11:51;13.68;;;8.80;;
61960;SDS011;47923;42.506;24.192;2023-04-06T06:14:16;10.88;;;7.75;;
61960;SDS011;47923;42.506;24.192;2023-04-06T06:16:42;11.38;;;8.02;;
61960;SDS011;47923;42.506;24.192;2023-04-06T06:19:07;12.00;;;8.02;;
61960;SDS011;47923;42.506;24.192;2023-04-06T06:21:33;12.48;;;8.75;;
61960;SDS011;47923;42.506;24.192;2023-04-06T06:23:58;10.77;;;7.90;;
61960;SDS011;47923;42.506;24.192;2023-04-06T06:26:24;11.30;;;7.32;;
61960;SDS011;47923;42.506;24.192;2023-04-06T06:28:50;10.32;;;7.15;;
61960;SDS011;47923;42.506;24.192;2023-04-06T06:31:15;12.07;;;8.88;;
61960;SDS011;47923;42.506;24.192;2023-04-06T06:33:41;15.23;;;8.93;;
61960;SDS011;47923;42.506;24.192;2023-04-06T06:36:07;13.07;;;8.98;;
61960;SDS011;47923;42.506;24.192;2023-04-06T06:38:32;10.48;;;7.72;;
61960;SDS011;47923;42.506;24.192;2023-04-06T06:40:58;15.52;;;11.15;;
61960;SDS011;47923;42.506;24.192;2023-04-06T06:43:23;14.52;;;9.43;;
61960;SDS011;47923;42.506;24.192;2023-04-06T06:45:49;10.95;;;8.65;;
61960;SDS011;47923;42.506;24.192;2023-04-06T06:48:15;11.68;;;8.90;;
61960;SDS011;47923;42.506;24.192;2023-04-06T06:50:40;13.70;;;9.02;;
61960;SDS011;47923;42.506;24.192;2023-04-06T06:53:06;13.18;;;8.52;;
61960;SDS011;47923;42.506;24.192;2023-04-06T06:55:31;14.98;;;10.43;;
61960;SDS011;47923;42.506;24.192;2023-04-06T06:57:57;10.88;;;8.07;;
61960;SDS011;47923;42.506;24.192;2023-04-06T07:00:22;13.07;;;9.55;;
61960;SDS011;47923;42.506;24.192;2023-04-06T07:02:48;17.38;;;10.85;;
61960;SDS011;47923;42.506;24.192;2023-04-06T07:05:13;13.88;;;9.30;;
61960;SDS011;47923;42.506;24.192;2023-04-06T07:07:40;12.55;;;8.77;;
61960;SDS011;47923;42.506;24.192;2023-04-06T07:10:06;11.48;;;8.73;;
61960;SDS011;47923;42.506;24.192;2023-04-06T07:12:32;12.93;;;10.20;;
61960;SDS011;47923;42.506;24.192;2023-04-06T07:14:58;13.50;;;9.77;;
61960;SDS011;47923;42.506;24.192;2023-04-06T07:17:23;13.13;;;9.13;;
61960;SDS011;47923;42.506;24.192;2023-04-06T07:19:49;12.68;;;9.23;;
61960;SDS011;47923;42.506;24.192;2023-04-06T07:22:14;10.82;;;9.00;;
61960;SDS011;47923;42.506;24.192;2023-04-06T07:24:40;13.57;;;9.15;;
61960;SDS011;47923;42.506;24.192;2023-04-06T07:27:05;12.10;;;8.48;;
61960;SDS011;47923;42.506;24.192;2023-04-06T07:29:32;13.73;;;9.68;;
61960;SDS011;47923;42.506;24.192;2023-04-06T07:32:00;12.77;;;8.85;;
61960;SDS011;47923;42.506;24.192;2023-04-06T07:34:25;11.02;;;8.73;;
61960;SDS011;47923;42.506;24.192;2023-04-06T07:36:51;12.80;;;9.30;;
61960;SDS011;47923;42.506;24.192;2023-04-06T07:39:18;12.90;;;8.25;;
61960;SDS011;47923;42.506;24.192;2023-04-06T07:41:44;11.23;;;9.18;;
61960;SDS011;47923;42.506;24.192;2023-04-06T07:44:09;11.73;;;8.75;;
61960;SDS011;47923;42.506;24.192;2023-04-06T07:46:35;11.02;;;8.85;;
61960;SDS011;47923;42.506;24.192;2023-04-06T07:49:01;14.02;;;10.60;;
61960;SDS011;47923;42.506;24.192;2023-04-06T07:51:27;16.02;;;10.38;;
61960;SDS011;47923;42.506;24.192;2023-04-06T07:53:52;13.63;;;9.52;;
61960;SDS011;47923;42.506;24.192;2023-04-06T07:56:18;12.20;;;9.52;;
61960;SDS011;47923;42.506;24.192;2023-04-06T07:58:44;9.80;;;8.00;;
61960;SDS011;47923;42.506;24.192;2023-04-06T08:01:09;15.02;;;8.90;;
61960;SDS011;47923;42.506;24.192;2023-04-06T08:03:35;11.45;;;8.48;;
61960;SDS011;47923;42.506;24.192;2023-04-06T08:06:01;11.27;;;8.32;;
61960;SDS011;47923;42.506;24.192;2023-04-06T08:08:28;11.18;;;8.95;;
61960;SDS011;47923;42.506;24.192;2023-04-06T08:11:03;11.50;;;9.02;;
61960;SDS011;47923;42.506;24.192;2023-04-06T08:13:47;10.65;;;8.35;;
61960;SDS011;47923;42.506;24.192;2023-04-06T08:16:37;10.40;;;8.02;;
61960;SDS011;47923;42.506;24.192;2023-04-06T08:19:10;13.52;;;9.18;;
61960;SDS011;47923;42.506;24.192;2023-04-06T08:24:37;11.50;;;8.75;;
61960;SDS011;47923;42.506;24.192;2023-04-06T08:27:08;14.75;;;10.05;;
61960;SDS011;47923;42.506;24.192;2023-04-06T08:29:39;17.48;;;8.32;;
61960;SDS011;47923;42.506;24.192;2023-04-06T08:32:10;12.02;;;8.07;;
61960;SDS011;47923;42.506;24.192;2023-04-06T08:34:56;22.55;;;11.35;;
61960;SDS011;47923;42.506;24.192;2023-04-06T08:37:25;12.32;;;8.68;;
61960;SDS011;47923;42.506;24.192;2023-04-06T08:39:59;12.32;;;9.40;;
61960;SDS011;47923;42.506;24.192;2023-04-06T08:42:27;11.48;;;8.13;;
61960;SDS011;47923;42.506;24.192;2023-04-06T08:45:23;13.80;;;9.07;;
61960;SDS011;47923;42.506;24.192;2023-04-06T08:47:51;13.32;;;9.50;;
61960;SDS011;47923;42.506;24.192;2023-04-06T08:50:21;11.20;;;9.43;;
61960;SDS011;47923;42.506;24.192;2023-04-06T08:52:47;10.60;;;8.43;;
61960;SDS011;47923;42.506;24.192;2023-04-06T08:55:14;11.25;;;8.52;;
61960;SDS011;47923;42.506;24.192;2023-04-06T08:57:40;11.23;;;9.27;;
61960;SDS011;47923;42.506;24.192;2023-04-06T09:00:07;11.23;;;8.45;;
61960;SDS011;47923;42.506;24.192;2023-04-06T09:02:36;11.52;;;8.77;;
61960;SDS011;47923;42.506;24.192;2023-04-06T09:05:06;13.00;;;9.45;;
61960;SDS011;47923;42.506;24.192;2023-04-06T09:07:33;10.30;;;8.43;;
61960;SDS011;47923;42.506;24.192;2023-04-06T09:09:58;14.20;;;9.52;;
61960;SDS011;47923;42.506;24.192;2023-04-06T09:12:25;10.55;;;8.43;;
61960;SDS011;47923;42.506;24.192;2023-04-06T09:14:51;12.20;;;9.00;;
61960;SDS011;47923;42.506;24.192;2023-04-06T09:17:24;11.57;;;9.13;;
61960;SDS011;47923;42.506;24.192;2023-04-06T09:19:50;12.05;;;8.77;;
61960;SDS011;47923;42.506;24.192;2023-04-06T09:22:17;12.70;;;8.52;;
61960;SDS011;47923;42.506;24.192;2023-04-06T09:24:44;11.82;;;8.60;;
61960;SDS011;47923;42.506;24.192;2023-04-06T09:27:10;12.05;;;9.07;;
61960;SDS011;47923;42.506;24.192;2023-04-06T09:29:35;13.60;;;10.20;;
61960;SDS011;47923;42.506;24.192;2023-04-06T09:32:10;15.68;;;10.80;;
61960;SDS011;47923;42.506;24.192;2023-04-06T09:34:40;14.32;;;11.45;;
61960;SDS011;47923;42.506;24.192;2023-04-06T09:37:12;17.30;;;9.98;;
61960;SDS011;47923;42.506;24.192;2023-04-06T09:39:43;14.43;;;10.10;;
61960;SDS011;47923;42.506;24.192;2023-04-06T09:42:09;12.60;;;9.18;;
61960;SDS011;47923;42.506;24.192;2023-04-06T09:44:36;12.52;;;9.30;;
61960;SDS011;47923;42.506;24.192;2023-04-06T09:47:04;12.50;;;9.82;;
61960;SDS011;47923;42.506;24.192;2023-04-06T09:49:32;12.30;;;9.57;;
61960;SDS011;47923;42.506;24.192;2023-04-06T09:51:59;12.35;;;10.13;;
61960;SDS011;47923;42.506;24.192;2023-04-06T09:54:28;12.32;;;9.48;;
61960;SDS011;47923;42.506;24.192;2023-04-06T10:07:48;13.63;;;10.60;;
61960;SDS011;47923;42.506;24.192;2023-04-06T10:10:17;12.95;;;8.70;;
61960;SDS011;47923;42.506;24.192;2023-04-06T10:12:42;11.77;;;9.35;;
61960;SDS011;47923;42.506;24.192;2023-04-06T10:15:09;11.25;;;9.18;;
61960;SDS011;47923;42.506;24.192;2023-04-06T10:17:35;11.68;;;9.38;;
61960;SDS011;47923;42.506;24.192;2023-04-06T10:20:24;11.40;;;8.27;;
61960;SDS011;47923;42.506;24.192;2023-04-06T10:25:51;12.75;;;9.35;;
61960;SDS011;47923;42.506;24.192;2023-04-06T10:28:29;12.95;;;9.07;;
61960;SDS011;47923;42.506;24.192;2023-04-06T10:30:57;12.35;;;9.50;;
61960;SDS011;47923;42.506;24.192;2023-04-06T10:33:24;11.07;;;8.30;;
61960;SDS011;47923;42.506;24.192;2023-04-06T10:35:49;11.32;;;8.57;;
61960;SDS011;47923;42.506;24.192;2023-04-06T10:38:15;13.27;;;9.18;;
61960;SDS011;47923;42.506;24.192;2023-04-06T10:40:45;12.60;;;9.88;;
61960;SDS011;47923;42.506;24.192;2023-04-06T10:43:13;12.73;;;9.05;;
61960;SDS011;47923;42.506;24.192;2023-04-06T10:45:44;12.27;;;9.77;;
61960;SDS011;47923;42.506;24.192;2023-04-06T10:48:13;12.80;;;9.90;;
61960;SDS011;47923;42.506;24.192;2023-04-06T10:50:40;12.88;;;9.80;;
61960;SDS011;47923;42.506;24.192;2023-04-06T10:53:06;11.35;;;8.35;;
61960;SDS011;47923;42.506;24.192;2023-04-06T10:55:32;11.63;;;8.93;;
61960;SDS011;47923;42.506;24.192;2023-04-06T10:57:58;14.13;;;9.80;;
61960;SDS011;47923;42.506;24.192;2023-04-06T11:00:23;12.63;;;9.30;;
61960;SDS011;47923;42.506;24.192;2023-04-06T11:02:49;10.82;;;7.13;;
61960;SDS011;47923;42.506;24.192;2023-04-06T11:05:15;12.93;;;7.50;;
61960;SDS011;47923;42.506;24.192;2023-04-06T11:07:40;12.13;;;8.57;;
61960;SDS011;47923;42.506;24.192;2023-04-06T11:10:09;12.57;;;8.70;;
61960;SDS011;47923;42.506;24.192;2023-04-06T11:12:35;14.57;;;8.57;;
61960;SDS011;47923;42.506;24.192;2023-04-06T11:15:01;11.93;;;9.30;;
61960;SDS011;47923;42.506;24.192;2023-04-06T11:17:34;14.27;;;8.27;;
61960;SDS011;47923;42.506;24.192;2023-04-06T11:20:01;11.18;;;8.15;;
61960;SDS011;47923;42.506;24.192;2023-04-06T11:22:28;12.55;;;8.45;;
61960;SDS011;47923;42.506;24.192;2023-04-06T11:25:04;12.43;;;8.23;;
61960;SDS011;47923;42.506;24.192;2023-04-06T11:27:36;13.50;;;8.25;;
61960;SDS011;47923;42.506;24.192;2023-04-06T11:30:02;14.27;;;9.45;;
61960;SDS011;47923;42.506;24.192;2023-04-06T11:32:28;12.02;;;7.63;;
61960;SDS011;47923;42.506;24.192;2023-04-06T11:34:53;12.88;;;8.07;;
61960;SDS011;47923;42.506;24.192;2023-04-06T11:37:19;13.73;;;8.57;;
61960;SDS011;47923;42.506;24.192;2023-04-06T11:39:49;10.98;;;7.75;;
61960;SDS011;47923;42.506;24.192;2023-04-06T11:42:24;14.32;;;8.63;;
61960;SDS011;47923;42.506;24.192;2023-04-06T11:44:51;12.05;;;8.43;;
61960;SDS011;47923;42.506;24.192;2023-04-06T11:47:19;10.57;;;7.07;;
61960;SDS011;47923;42.506;24.192;2023-04-06T11:49:45;11.95;;;7.22;;
61960;SDS011;47923;42.506;24.192;2023-04-06T11:52:15;12.05;;;7.50;;
61960;SDS011;47923;42.506;24.192;2023-04-06T11:54:51;13.93;;;8.55;;
61960;SDS011;47923;42.506;24.192;2023-04-06T11:57:18;10.15;;;7.15;;
61960;SDS011;47923;42.506;24.192;2023-04-06T11:59:45;11.13;;;7.15;;
61960;SDS011;47923;42.506;24.192;2023-04-06T12:02:10;10.10;;;6.68;;
61960;SDS011;47923;42.506;24.192;2023-04-06T12:04:36;11.85;;;6.82;;
61960;SDS011;47923;42.506;24.192;2023-04-06T12:07:02;10.93;;;6.80;;
61960;SDS011;47923;42.506;24.192;2023-04-06T12:09:29;9.93;;;6.57;;
61960;SDS011;47923;42.506;24.192;2023-04-06T12:11:54;10.48;;;6.18;;
61960;SDS011;47923;42.506;24.192;2023-04-06T12:14:21;9.98;;;5.32;;
61960;SDS011;47923;42.506;24.192;2023-04-06T12:16:46;8.13;;;5.45;;
61960;SDS011;47923;42.506;24.192;2023-04-06T12:19:12;8.45;;;5.00;;
61960;SDS011;47923;42.506;24.192;2023-04-06T12:21:37;11.13;;;6.13;;
61960;SDS011;47923;42.506;24.192;2023-04-06T12:24:03;9.00;;;5.10;;
61960;SDS011;47923;42.506;24.192;2023-04-06T12:26:30;10.93;;;6.35;;
61960;SDS011;47923;42.506;24.192;2023-04-06T12:28:56;9.38;;;5.28;;
61960;SDS011;47923;42.506;24.192;2023-04-06T12:31:27;10.68;;;5.93;;
61960;SDS011;47923;42.506;24.192;2023-04-06T12:33:53;8.50;;;4.82;;
61960;SDS011;47923;42.506;24.192;2023-04-06T12:36:19;11.98;;;6.03;;
61960;SDS011;47923;42.506;24.192;2023-04-06T12:38:49;8.18;;;5.20;;
61960;SDS011;47923;42.506;24.192;2023-04-06T12:41:16;9.85;;;6.10;;
61960;SDS011;47923;42.506;24.192;2023-04-06T12:43:42;7.97;;;4.20;;
61960;SDS011;47923;42.506;24.192;2023-04-06T12:46:09;8.07;;;4.75;;
61960;SDS011;47923;42.506;24.192;2023-04-06T12:48:35;5.30;;;3.47;;
61960;SDS011;47923;42.506;24.192;2023-04-06T12:51:02;7.72;;;4.53;;
61960;SDS011;47923;42.506;24.192;2023-04-06T12:53:28;7.88;;;4.30;;
61960;SDS011;47923;42.506;24.192;2023-04-06T12:55:54;6.80;;;3.78;;
61960;SDS011;47923;42.506;24.192;2023-04-06T12:58:20;7.05;;;3.80;;
61960;SDS011;47923;42.506;24.192;2023-04-06T13:00:47;8.95;;;4.50;;
61960;SDS011;47923;42.506;24.192;2023-04-06T13:03:14;7.35;;;4.05;;
61960;SDS011;47923;42.506;24.192;2023-04-06T13:05:48;5.57;;;3.42;;
61960;SDS011;47923;42.506;24.192;2023-04-06T13:08:15;5.80;;;3.53;;
61960;SDS011;47923;42.506;24.192;2023-04-06T13:10:44;8.38;;;4.57;;
61960;SDS011;47923;42.506;24.192;2023-04-06T13:13:16;8.00;;;5.18;;
61960;SDS011;47923;42.506;24.192;2023-04-06T13:15:42;9.07;;;5.05;;
61960;SDS011;47923;42.506;24.192;2023-04-06T13:18:08;10.35;;;5.32;;
61960;SDS011;47923;42.506;24.192;2023-04-06T13:20:34;11.68;;;6.00;;
61960;SDS011;47923;42.506;24.192;2023-04-06T13:23:00;8.65;;;5.55;;
61960;SDS011;47923;42.506;24.192;2023-04-06T13:25:26;8.82;;;4.53;;
61960;SDS011;47923;42.506;24.192;2023-04-06T13:27:53;9.13;;;5.45;;
61960;SDS011;47923;42.506;24.192;2023-04-06T13:30:18;7.35;;;4.45;;
61960;SDS011;47923;42.506;24.192;2023-04-06T13:32:44;5.65;;;3.83;;
61960;SDS011;47923;42.506;24.192;2023-04-06T13:35:12;9.38;;;5.90;;
61960;SDS011;47923;42.506;24.192;2023-04-06T13:37:37;8.45;;;5.53;;
61960;SDS011;47923;42.506;24.192;2023-04-06T13:40:06;6.30;;;3.17;;
61960;SDS011;47923;42.506;24.192;2023-04-06T13:42:32;8.52;;;4.07;;
61960;SDS011;47923;42.506;24.192;2023-04-06T13:45:01;7.28;;;4.50;;
61960;SDS011;47923;42.506;24.192;2023-04-06T13:47:35;9.35;;;3.70;;
61960;SDS011;47923;42.506;24.192;2023-04-06T13:50:15;7.40;;;3.80;;
61960;SDS011;47923;42.506;24.192;2023-04-06T13:53:03;7.20;;;4.57;;
61960;SDS011;47923;42.506;24.192;2023-04-06T13:55:38;6.20;;;3.75;;
61960;SDS011;47923;42.506;24.192;2023-04-06T13:58:06;7.30;;;4.25;;
61960;SDS011;47923;42.506;24.192;2023-04-06T14:01:00;8.23;;;4.90;;
61960;SDS011;47923;42.506;24.192;2023-04-06T14:04:04;7.85;;;4.55;;
61960;SDS011;47923;42.506;24.192;2023-04-06T14:06:56;10.75;;;6.85;;
61960;SDS011;47923;42.506;24.192;2023-04-06T14:09:22;9.73;;;5.85;;
61960;SDS011;47923;42.506;24.192;2023-04-06T14:12:15;8.95;;;5.47;;
61960;SDS011;47923;42.506;24.192;2023-04-06T14:15:07;8.82;;;5.53;;
61960;SDS011;47923;42.506;24.192;2023-04-06T14:18:07;8.60;;;5.30;;
61960;SDS011;47923;42.506;24.192;2023-04-06T14:20:59;11.32;;;5.45;;
61960;SDS011;47923;42.506;24.192;2023-04-06T14:23:33;8.10;;;5.18;;
61960;SDS011;47923;42.506;24.192;2023-04-06T14:26:07;10.45;;;6.05;;
61960;SDS011;47923;42.506;24.192;2023-04-06T14:34:31;10.00;;;6.80;;
61960;SDS011;47923;42.506;24.192;2023-04-06T14:37:07;7.60;;;4.90;;
61960;SDS011;47923;42.506;24.192;2023-04-06T14:39:51;9.25;;;5.85;;
61960;SDS011;47923;42.506;24.192;2023-04-06T14:42:22;10.98;;;6.47;;
61960;SDS011;47923;42.506;24.192;2023-04-06T14:44:59;10.70;;;6.90;;
61960;SDS011;47923;42.506;24.192;2023-04-06T14:47:49;15.50;;;9.57;;